Time;durP1;ratioP1;P1;durP2;ratioP2;P2;SDS_P1;SDS_P2;PMS_P1;PMS_P2;Temp;Humidity;BMP_temperature;BMP_pressure;BME280_temperature;BME280_humidity;BME280_pressure;Samples;Min_cycle;Max_cycle;Signal;HPM_P1;HPM_P2
2021/03/30 00:01:46;;;;;;;63.10;38.27;;;;;;;9.23;78.58;100189.13;2129414;84;21134;-78
2021/03/30 00:04:47;;;;;;;56.37;36.70;;;;;;;9.27;78.63;100185.81;2129764;83;21147;-78
2021/03/30 00:07:48;;;;;;;54.50;36.57;;;;;;;9.29;78.51;100184.56;2128478;83;21328;-78
2021/03/30 00:10:49;;;;;;;55.93;35.97;;;;;;;9.25;78.61;100187.05;2127905;83;21103;-78
2021/03/30 00:13:50;;;;;;;59.07;38.97;;;;;;;9.22;78.63;100188.66;2128393;83;21269;-77
2021/03/30 00:16:51;;;;;;;75.83;50.53;;;;;;;9.22;78.63;100193.87;2128748;83;21452;-77
2021/03/30 00:19:52;;;;;;;70.10;42.47;;;;;;;9.22;78.71;100189.55;2127852;83;21147;-78
2021/03/30 00:22:53;;;;;;;75.73;44.13;;;;;;;9.28;78.91;100184.98;2127164;83;21122;-77
2021/03/30 00:25:54;;;;;;;60.13;40.17;;;;;;;9.31;78.72;100181.61;2126728;84;21204;-77
2021/03/30 00:28:55;;;;;;;68.07;41.50;;;;;;;9.28;78.76;100182.38;2126540;83;21273;-78
2021/03/30 00:31:57;;;;;;;68.03;41.20;;;;;;;9.28;78.76;100183.68;2127240;84;21146;-78
2021/03/30 00:34:58;;;;;;;65.67;41.90;;;;;;;9.28;78.77;100177.16;2127155;83;21269;-78
2021/03/30 00:37:59;;;;;;;64.90;40.77;;;;;;;9.29;78.83;100180.25;2127612;84;21174;-77
2021/03/30 00:41:00;;;;;;;65.63;40.70;;;;;;;9.28;78.79;100174.56;2127145;83;21301;-78
2021/03/30 00:44:01;;;;;;;64.57;42.37;;;;;;;9.29;78.79;100181.55;2126975;83;21269;-77
2021/03/30 00:47:02;;;;;;;61.10;40.13;;;;;;;9.32;78.94;100172.95;2127237;83;21344;-78
2021/03/30 00:50:03;;;;;;;68.63;40.87;;;;;;;9.32;78.80;100176.87;2127200;83;21123;-79
2021/03/30 00:53:04;;;;;;;62.40;40.07;;;;;;;9.33;78.73;100177.34;2127272;83;21159;-77
2021/03/30 00:56:05;;;;;;;67.00;40.53;;;;;;;9.34;78.72;100179.12;2128612;83;21448;-78
2021/03/30 00:59:06;;;;;;;58.37;39.10;;;;;;;9.36;78.74;100182.25;2128267;83;21424;-79
2021/03/30 01:02:07;;;;;;;58.17;37.20;;;;;;;9.37;78.70;100182.73;2127732;83;21408;-78
2021/03/30 01:05:08;;;;;;;58.07;38.53;;;;;;;9.36;78.60;100181.36;2127519;83;21253;-77
2021/03/30 01:08:09;;;;;;;58.17;35.67;;;;;;;9.34;78.68;100178.70;2127943;83;21281;-77
2021/03/30 01:11:11;;;;;;;57.37;36.70;;;;;;;9.34;78.75;100177.81;2127904;83;21428;-78
2021/03/30 01:14:12;;;;;;;57.87;38.00;;;;;;;9.33;78.71;100177.34;2127498;83;21258;-78
2021/03/30 01:17:13;;;;;;;53.90;35.80;;;;;;;9.34;78.77;100178.70;2128393;83;21249;-78
2021/03/30 01:20:14;;;;;;;53.80;35.90;;;;;;;9.35;78.83;100176.57;2128388;83;21162;-78
2021/03/30 01:23:15;;;;;;;62.03;35.53;;;;;;;9.36;78.79;100178.34;2128727;83;21139;-78
2021/03/30 01:26:16;;;;;;;56.70;35.60;;;;;;;9.34;78.80;100177.40;2127867;83;21583;-79
2021/03/30 01:29:17;;;;;;;54.33;34.50;;;;;;;9.36;78.84;100173.13;2127389;83;21269;-77
2021/03/30 01:32:18;;;;;;;51.30;34.10;;;;;;;9.39;78.71;100171.05;2127417;83;21278;-77
2021/03/30 01:35:19;;;;;;;50.07;34.70;;;;;;;9.38;78.71;100170.17;2127542;83;21440;-78
2021/03/30 01:38:20;;;;;;;53.30;33.33;;;;;;;9.40;78.69;100167.62;2127227;83;21173;-78
2021/03/30 01:41:21;;;;;;;48.00;31.70;;;;;;;9.42;78.74;100169.87;2126438;83;21412;-78
2021/03/30 01:44:23;;;;;;;49.33;32.03;;;;;;;9.40;78.73;100170.23;2126566;83;21134;-78
2021/03/30 01:47:24;;;;;;;58.23;34.00;;;;;;;9.37;78.72;100160.58;2126705;83;21305;-77
2021/03/30 01:50:25;;;;;;;55.63;33.40;;;;;;;9.39;78.75;100164.54;2127091;83;21146;-78
2021/03/30 01:53:26;;;;;;;57.43;34.00;;;;;;;9.40;78.81;100162.41;2127266;83;21146;-78
2021/03/30 01:56:27;;;;;;;60.30;33.83;;;;;;;9.41;78.76;100166.37;2128828;84;21268;-77
2021/03/30 01:59:28;;;;;;;51.07;32.57;;;;;;;9.44;78.76;100166.48;2128571;83;21142;-78
2021/03/30 02:02:29;;;;;;;53.20;33.60;;;;;;;9.44;78.69;100170.81;2128392;83;21146;-77
2021/03/30 02:05:30;;;;;;;50.90;31.57;;;;;;;9.43;78.69;100158.61;2128637;83;21153;-77
2021/03/30 02:08:31;;;;;;;48.30;31.37;;;;;;;9.42;78.62;100165.55;2127552;83;21557;-78
2021/03/30 02:11:40;;;;;;;54.87;34.83;;;;;;;9.44;78.67;100170.81;2126164;83;21146;-78
2021/03/30 02:14:35;;;;;;;54.87;33.80;;;;;;;9.46;78.60;100168.73;2124482;84;21295;-77
2021/03/30 02:17:36;;;;;;;61.73;36.80;;;;;;;9.47;78.73;100171.81;2126049;83;21155;-78
2021/03/30 02:20:37;;;;;;;50.83;34.17;;;;;;;9.49;78.71;100166.24;2125801;83;21417;-77
2021/03/30 02:23:39;;;;;;;50.70;32.83;;;;;;;9.51;78.68;100159.78;2125900;83;21428;-77
2021/03/30 02:26:40;;;;;;;56.50;34.73;;;;;;;9.50;78.60;100159.31;2126062;83;21198;-78
2021/03/30 02:29:41;;;;;;;50.40;33.10;;;;;;;9.48;78.59;100157.06;2126240;83;21184;-78
2021/03/30 02:32:42;;;;;;;47.23;30.77;;;;;;;9.47;78.55;100155.28;2125946;84;21158;-76
2021/03/30 02:35:46;;;;;;;51.77;33.33;;;;;;;9.47;78.54;100149.66;2126258;83;21444;-77
2021/03/30 02:38:47;;;;;;;51.23;33.80;;;;;;;9.48;78.65;100150.13;2125998;83;21571;-77
2021/03/30 02:41:50;;;;;;;50.70;32.80;;;;;;;9.48;78.58;100151.44;2125789;84;21510;-77
2021/03/30 02:44:51;;;;;;;55.07;34.53;;;;;;;9.43;78.47;100145.58;2126134;83;21428;-77
2021/03/30 02:47:52;;;;;;;57.40;34.57;;;;;;;9.41;78.57;100144.22;2125465;83;21309;-77
2021/03/30 02:50:53;;;;;;;49.83;33.40;;;;;;;9.40;78.61;100143.75;2125681;83;21171;-77
2021/03/30 02:53:54;;;;;;;53.63;34.83;;;;;;;9.39;78.66;100145.88;2125209;83;21445;-76
2021/03/30 02:56:58;;;;;;;57.43;34.30;;;;;;;9.38;78.72;100146.72;2125375;83;21151;-77
2021/03/30 02:59:58;;;;;;;52.30;33.93;;;;;;;9.38;78.79;100146.72;2124826;83;21127;-77
2021/03/30 03:02:59;;;;;;;56.83;35.20;;;;;;;9.35;78.75;100139.20;2125116;83;21171;-78
2021/03/30 03:06:01;;;;;;;54.40;34.77;;;;;;;9.33;78.80;100133.93;2124913;83;21134;-77
2021/03/30 03:09:02;;;;;;;50.07;33.30;;;;;;;9.34;78.86;100137.42;2125275;83;21301;-77
2021/03/30 03:12:03;;;;;;;54.37;35.53;;;;;;;9.33;78.79;100145.66;2125666;84;21142;-78
2021/03/30 03:15:04;;;;;;;48.03;32.97;;;;;;;9.33;78.90;100137.84;2125967;83;21539;-77
2021/03/30 03:18:05;;;;;;;57.93;34.93;;;;;;;9.33;78.90;100133.93;2126015;83;21162;-76
2021/03/30 03:21:06;;;;;;;59.77;34.83;;;;;;;9.36;78.95;100139.25;2125838;83;21289;-77
2021/03/30 03:24:07;;;;;;;53.10;36.07;;;;;;;9.36;78.91;100135.34;2125155;83;21146;-77
2021/03/30 03:27:08;;;;;;;57.70;35.80;;;;;;;9.35;78.97;100132.27;2124886;83;21193;-77
2021/03/30 03:30:09;;;;;;;58.03;37.17;;;;;;;9.33;78.94;100127.42;2124901;83;21155;-76
2021/03/30 03:33:10;;;;;;;58.87;36.33;;;;;;;9.32;78.97;100120.84;2124535;83;21139;-76
2021/03/30 03:36:11;;;;;;;59.67;37.77;;;;;;;9.30;79.13;100128.61;2124518;83;21162;-77
2021/03/30 03:39:12;;;;;;;56.83;38.67;;;;;;;9.31;79.26;100129.49;2124430;83;21178;-78
2021/03/30 03:42:14;;;;;;;56.73;37.90;;;;;;;9.30;79.19;100124.70;2123985;83;21107;-77
2021/03/30 03:45:15;;;;;;;49.53;35.13;;;;;;;9.35;79.44;100137.48;2123088;83;21147;-76
2021/03/30 03:48:16;;;;;;;62.93;38.90;;;;;;;9.45;80.31;100139.59;2123163;83;21142;-77
2021/03/30 03:51:17;;;;;;;63.27;38.57;;;;;;;9.55;79.25;100144.34;2123186;83;21273;-77
2021/03/30 03:54:18;;;;;;;52.80;35.43;;;;;;;9.48;78.98;100143.61;2122279;83;21265;-76
2021/03/30 03:57:19;;;;;;;58.80;39.07;;;;;;;9.44;79.12;100148.24;2122528;84;21162;-77
2021/03/30 04:00:20;;;;;;;65.90;39.90;;;;;;;9.42;79.11;100147.72;2122035;83;21280;-78
2021/03/30 04:03:21;;;;;;;67.60;41.73;;;;;;;9.37;79.14;100148.84;2122166;83;21266;-77
2021/03/30 04:06:22;;;;;;;73.30;41.27;;;;;;;9.33;79.30;100149.56;2121862;83;21183;-77
2021/03/30 04:09:23;;;;;;;63.73;41.70;;;;;;;9.32;79.37;100149.09;2121926;83;21297;-78
2021/03/30 04:12:27;;;;;;;63.33;40.37;;;;;;;9.33;79.43;100145.66;2121449;83;21470;-76
2021/03/30 04:15:28;;;;;;;63.37;40.53;;;;;;;9.36;79.48;100140.97;2121667;83;21269;-78
2021/03/30 04:18:29;;;;;;;68.03;40.47;;;;;;;9.36;79.45;100143.16;2122122;83;21163;-77
2021/03/30 04:21:30;;;;;;;65.67;41.50;;;;;;;9.38;79.50;100142.80;2121636;83;21126;-77
2021/03/30 04:24:31;;;;;;;65.93;41.20;;;;;;;9.38;79.45;100154.53;2122049;84;21599;-78
2021/03/30 04:27:32;;;;;;;62.70;39.90;;;;;;;9.38;79.41;100149.73;2122849;83;22013;-77
2021/03/30 04:30:34;;;;;;;60.53;40.13;;;;;;;9.41;79.48;100140.31;2122816;83;21288;-76
2021/03/30 04:33:35;;;;;;;62.03;37.73;;;;;;;9.44;79.34;100146.05;2123003;83;21277;-77
2021/03/30 04:36:36;;;;;;;56.90;38.23;;;;;;;9.42;79.42;100149.91;2123190;83;21305;-78
2021/03/30 04:39:37;;;;;;;74.13;44.60;;;;;;;9.39;79.45;100155.42;2123007;83;21291;-78
2021/03/30 04:42:38;;;;;;;67.87;45.30;;;;;;;9.37;79.47;100159.69;2123274;83;21142;-78
2021/03/30 04:45:39;;;;;;;67.20;42.70;;;;;;;9.38;79.58;100157.14;2122827;83;21253;-77
2021/03/30 04:48:40;;;;;;;68.03;44.47;;;;;;;9.42;79.51;100162.94;2123456;83;21309;-77
2021/03/30 04:51:41;;;;;;;73.20;46.43;;;;;;;9.43;79.57;100163.41;2123967;83;21123;-78
2021/03/30 04:54:42;;;;;;;74.67;44.77;;;;;;;9.45;79.58;100170.87;2123396;83;21309;-79
2021/03/30 04:57:43;;;;;;;63.70;42.03;;;;;;;9.44;79.62;100171.70;2122865;83;21298;-80
2021/03/30 05:00:44;;;;;;;70.53;45.47;;;;;;;9.44;79.85;100178.63;2122793;83;21265;-78
2021/03/30 05:03:45;;;;;;;75.70;47.17;;;;;;;9.40;79.82;100179.34;2122393;83;21131;-78
2021/03/30 05:06:46;;;;;;;86.90;55.40;;;;;;;9.40;80.13;100189.36;2121986;83;21323;-78
2021/03/30 05:09:47;;;;;;;95.97;64.50;;;;;;;9.41;80.14;100182.02;2123850;83;21973;-77
2021/03/30 05:12:48;;;;;;;85.40;59.73;;;;;;;9.42;80.31;100190.30;2125435;83;21147;-79
2021/03/30 05:15:49;;;;;;;76.97;51.03;;;;;;;9.43;80.34;100188.17;2125781;84;21258;-78
2021/03/30 05:18:50;;;;;;;71.60;48.77;;;;;;;9.44;80.33;100187.34;2125463;83;21111;-77
2021/03/30 05:21:52;;;;;;;84.70;60.60;;;;;;;9.47;80.38;100190.06;2124654;83;21487;-77
2021/03/30 05:24:53;;;;;;;86.37;58.40;;;;;;;9.54;80.47;100187.30;2124764;83;21289;-78
2021/03/30 05:27:54;;;;;;;80.07;50.47;;;;;;;9.62;80.53;100184.56;2124336;83;21178;-77
2021/03/30 05:30:55;;;;;;;65.00;42.63;;;;;;;9.67;80.26;100184.73;2124498;83;21123;-77
2021/03/30 05:33:56;;;;;;;66.73;42.57;;;;;;;9.68;80.19;100174.77;2124924;83;21256;-78
2021/03/30 05:36:57;;;;;;;62.27;39.30;;;;;;;9.72;80.12;100177.96;2125768;83;21265;-78
2021/03/30 05:39:58;;;;;;;63.10;40.17;;;;;;;9.76;80.03;100178.55;2125008;83;21281;-77
2021/03/30 05:42:59;;;;;;;55.70;37.37;;;;;;;9.80;80.00;100181.31;2124754;84;21273;-78
2021/03/30 05:46:00;;;;;;;55.43;38.40;;;;;;;9.86;79.90;100179.34;2125645;83;21575;-78
2021/03/30 05:49:01;;;;;;;58.30;37.20;;;;;;;9.91;79.79;100181.70;2124323;83;21318;-75
2021/03/30 05:52:03;;;;;;;59.73;37.60;;;;;;;9.93;79.73;100182.64;2124545;83;21917;-78
2021/03/30 05:55:04;;;;;;;68.57;44.47;;;;;;;9.98;79.60;100197.15;2125737;83;21257;-79
2021/03/30 05:58:05;;;;;;;72.13;46.60;;;;;;;9.99;79.59;100194.59;2124450;83;21280;-77
2021/03/30 06:01:06;;;;;;;75.23;51.90;;;;;;;10.07;79.60;100196.17;2125187;83;21265;-79
2021/03/30 06:04:07;;;;;;;83.13;57.63;;;;;;;10.14;79.58;100189.92;2125486;83;21465;-78
2021/03/30 06:07:08;;;;;;;81.30;57.27;;;;;;;10.21;79.43;100183.22;2126052;83;21297;-79
2021/03/30 06:10:09;;;;;;;87.03;63.63;;;;;;;10.28;79.38;100183.91;2125552;83;21273;-79
2021/03/30 06:13:10;;;;;;;82.30;59.37;;;;;;;10.40;79.41;100189.95;2124879;83;21257;-78
2021/03/30 06:16:11;;;;;;;76.37;52.17;;;;;;;10.45;79.26;100191.92;2126078;83;21142;-78
2021/03/30 06:19:13;;;;;;;109.77;65.87;;;;;;;10.52;79.19;100194.31;2126033;83;21823;-80
2021/03/30 06:22:14;;;;;;;106.00;63.03;;;;;;;10.51;78.94;100196.05;2126389;83;21261;-79
2021/03/30 06:25:15;;;;;;;76.60;50.27;;;;;;;10.47;78.99;100202.41;2126266;83;21261;-79
2021/03/30 06:28:16;;;;;;;73.33;45.93;;;;;;;10.45;79.07;100213.22;2126610;83;21337;-80
2021/03/30 06:31:17;;;;;;;81.40;51.70;;;;;;;10.40;78.98;100212.14;2127371;83;21134;-80
2021/03/30 06:34:19;;;;;;;90.73;60.40;;;;;;;10.41;79.03;100214.84;2127106;83;21626;-78
2021/03/30 06:37:20;;;;;;;102.13;70.60;;;;;;;10.39;79.25;100219.50;2126680;83;21174;-80
2021/03/30 06:40:22;;;;;;;81.83;54.07;;;;;;;10.32;79.17;100229.27;2126881;83;21292;-81
2021/03/30 06:46:42;;;;;;;90.60;63.53;;;;;;;10.24;79.41;100226.80;2127346;84;21316;-81
2021/03/30 06:49:43;;;;;;;98.40;63.20;;;;;;;10.30;79.52;100234.43;2126200;83;21134;-79
2021/03/30 06:52:44;;;;;;;90.40;62.03;;;;;;;10.41;79.65;100243.97;2126090;83;21276;-80
2021/03/30 06:55:45;;;;;;;99.17;68.33;;;;;;;10.51;79.41;100237.81;2126407;83;21091;-81
2021/03/30 06:58:46;;;;;;;106.10;77.07;;;;;;;10.66;79.28;100236.55;2126680;83;21452;-81
2021/03/30 07:01:47;;;;;;;76.97;49.63;;;;;;;10.77;79.23;100231.27;2126246;83;21843;-80
2021/03/30 07:04:49;;;;;;;71.23;44.53;;;;;;;10.89;79.06;100228.17;2126567;84;21189;-80
2021/03/30 07:07:50;;;;;;;59.57;36.67;;;;;;;11.03;78.92;100225.58;2127284;83;21301;-81
2021/03/30 07:10:51;;;;;;;67.07;42.93;;;;;;;11.03;78.72;100231.69;2125541;83;21194;-81
2021/03/30 07:13:52;;;;;;;66.00;43.73;;;;;;;10.97;78.48;100227.58;2124578;83;21460;-80
2021/03/30 07:16:53;;;;;;;57.93;41.13;;;;;;;11.01;78.68;100231.17;2116312;83;21147;-79
2021/03/30 07:19:54;;;;;;;57.80;38.10;;;;;;;11.07;78.44;100222.23;2120743;83;21186;-82
2021/03/30 07:22:55;;;;;;;72.47;43.10;;;;;;;11.10;78.41;100223.63;2122462;83;21162;-79
2021/03/30 07:25:56;;;;;;;59.50;39.77;;;;;;;11.16;78.44;100228.62;2122239;83;21258;-79
2021/03/30 07:28:57;;;;;;;56.63;36.63;;;;;;;11.24;78.31;100228.87;2122669;83;21199;-80
2021/03/30 07:31:58;;;;;;;58.07;37.53;;;;;;;11.32;78.13;100226.52;2123054;83;21149;-80
2021/03/30 07:35:00;;;;;;;53.60;36.07;;;;;;;11.38;77.96;100229.33;2123946;84;21146;-81
2021/03/30 07:38:01;;;;;;;56.17;37.37;;;;;;;11.39;77.83;100231.98;2124419;83;21439;-81
2021/03/30 07:41:02;;;;;;;53.35;35.38;;;;;;;11.44;77.83;100231.70;2124147;83;21450;-79
2021/03/30 07:44:03;;;;;;;52.38;37.03;;;;;;;11.52;77.66;100237.59;2123439;84;21894;-83
2021/03/30 07:47:04;;;;;;;60.63;41.48;;;;;;;11.52;77.67;100240.20;2122576;83;21324;-81
2021/03/30 07:50:05;;;;;;;72.90;39.65;;;;;;;11.58;77.50;100239.97;2122341;83;21150;-79
2021/03/30 07:53:06;;;;;;;72.43;44.50;;;;;;;11.67;77.46;100230.20;2121980;83;21770;-79
2021/03/30 07:56:08;;;;;;;62.85;41.33;;;;;;;11.80;77.22;100220.59;2122734;83;21265;-79
2021/03/30 07:59:09;;;;;;;68.87;42.78;;;;;;;12.00;76.96;100225.96;2123185;83;21289;-80
2021/03/30 08:02:10;;;;;;;57.10;37.28;;;;;;;12.19;76.61;100217.34;2122948;83;21151;-80
2021/03/30 08:05:12;;;;;;;60.20;39.03;;;;;;;12.35;76.22;100219.09;2122070;83;21331;-78
2021/03/30 08:08:13;;;;;;;70.70;42.85;;;;;;;12.47;75.84;100216.34;2122456;83;21324;-81
2021/03/30 08:11:14;;;;;;;66.37;41.85;;;;;;;12.60;75.71;100226.28;2124560;83;21300;-80
2021/03/30 08:14:18;;;;;;;60.15;38.75;;;;;;;12.71;75.52;100224.82;2125451;83;21570;-79
2021/03/30 08:17:22;;;;;;;62.63;41.70;;;;;;;12.92;74.91;100231.02;2125926;84;21276;-80
2021/03/30 08:20:26;;;;;;;67.50;50.20;;;;;;;13.07;74.38;100237.97;2125106;83;21289;-81
2021/03/30 08:23:26;;;;;;;52.30;34.90;;;;;;;13.21;73.83;100237.91;2124812;83;21280;-79
2021/03/30 08:26:28;;;;;;;57.13;37.35;;;;;;;13.24;73.36;100234.47;2124987;83;21289;-79
2021/03/30 08:29:30;;;;;;;67.12;45.08;;;;;;;13.30;73.82;100239.42;2125247;83;21134;-79
2021/03/30 08:32:31;;;;;;;69.50;45.08;;;;;;;13.42;73.69;100238.81;2124706;83;21574;-81
2021/03/30 08:35:32;;;;;;;54.60;38.83;;;;;;;13.54;72.76;100242.14;2124597;83;21569;-79
2021/03/30 08:38:33;;;;;;;64.27;43.70;;;;;;;13.60;72.92;100246.21;2124605;83;21188;-79
2021/03/30 08:41:34;;;;;;;72.72;50.70;;;;;;;13.55;71.50;100238.66;2126252;83;21268;-80
2021/03/30 08:44:35;;;;;;;55.08;36.42;;;;;;;13.45;72.06;100232.33;2126237;83;21127;-82
2021/03/30 08:47:36;;;;;;;43.75;30.17;;;;;;;13.46;72.18;100231.91;2126637;83;21340;-81
2021/03/30 08:50:39;;;;;;;44.98;31.70;;;;;;;13.47;71.67;100233.67;2126548;83;21269;-81
2021/03/30 08:53:40;;;;;;;45.05;30.23;;;;;;;13.39;71.58;100233.50;2125868;83;21154;-82
2021/03/30 08:56:41;;;;;;;52.13;30.92;;;;;;;13.35;71.21;100240.42;2125970;83;21674;-80
2021/03/30 08:59:42;;;;;;;67.03;42.93;;;;;;;13.28;71.11;100240.24;2125210;84;21166;-80
2021/03/30 09:02:43;;;;;;;46.90;32.50;;;;;;;13.28;71.74;100237.20;2125455;83;21261;-80
2021/03/30 09:05:44;;;;;;;65.20;47.08;;;;;;;13.36;71.67;100247.44;2125744;83;21139;-80
2021/03/30 09:08:45;;;;;;;52.60;33.98;;;;;;;13.43;71.01;100243.64;2125540;83;21173;-79
2021/03/30 09:11:46;;;;;;;54.67;33.40;;;;;;;13.39;71.06;100247.50;2125895;83;21831;-81
2021/03/30 09:14:47;;;;;;;52.45;33.28;;;;;;;13.29;70.13;100257.32;2126019;83;21241;-78
2021/03/30 09:17:48;;;;;;;58.63;42.05;;;;;;;13.22;70.60;100254.09;2126458;83;21154;-79
2021/03/30 09:20:49;;;;;;;49.55;34.15;;;;;;;13.22;71.09;100256.72;2126016;83;21496;-79
2021/03/30 09:23:51;;;;;;;50.25;34.55;;;;;;;13.35;70.63;100252.64;2126048;83;21892;-81
2021/03/30 09:26:52;;;;;;;58.02;38.75;;;;;;;13.54;70.21;100255.26;2126288;83;21190;-80
2021/03/30 09:29:53;;;;;;;64.22;46.33;;;;;;;13.76;69.49;100251.36;2126572;83;21265;-80
2021/03/30 09:32:54;;;;;;;70.15;50.35;;;;;;;13.97;69.66;100245.28;2125971;83;21264;-79
2021/03/30 09:35:55;;;;;;;56.23;40.03;;;;;;;14.21;69.72;100251.45;2125812;83;21154;-81
2021/03/30 09:38:57;;;;;;;62.83;38.70;;;;;;;14.43;69.21;100251.45;2125513;83;21436;-79
2021/03/30 09:41:58;;;;;;;70.35;44.70;;;;;;;14.66;68.43;100251.02;2125375;84;21147;-79
2021/03/30 09:45:02;;;;;;;62.27;39.75;;;;;;;14.93;68.48;100255.02;2125951;83;21552;-78
2021/03/30 09:48:03;;;;;;;53.33;34.55;;;;;;;15.12;67.67;100256.19;2125974;84;21689;-80
2021/03/30 09:51:04;;;;;;;50.50;33.05;;;;;;;15.14;67.01;100259.30;2125900;83;21281;-79
2021/03/30 09:54:05;;;;;;;50.35;34.43;;;;;;;15.29;66.35;100254.70;2125711;83;21405;-81
2021/03/30 09:57:06;;;;;;;55.83;34.85;;;;;;;15.29;65.91;100247.70;2125659;83;21296;-79
2021/03/30 10:00:07;;;;;;;49.67;34.35;;;;;;;15.23;66.57;100248.92;2125318;83;21159;-80
2021/03/30 10:03:08;;;;;;;52.77;36.53;;;;;;;15.36;66.56;100238.16;2125916;83;21123;-79
2021/03/30 10:06:09;;;;;;;51.37;33.75;;;;;;;15.47;66.01;100240.94;2126348;83;21227;-79
2021/03/30 10:09:10;;;;;;;49.50;32.10;;;;;;;15.61;65.81;100243.40;2124848;83;21374;-78
2021/03/30 10:12:11;;;;;;;45.30;32.30;;;;;;;15.73;65.75;100238.30;2124920;84;21594;-81
2021/03/30 10:15:13;;;;;;;45.48;30.60;;;;;;;15.77;63.29;100240.11;2124757;83;21273;-79
2021/03/30 10:18:17;;;;;;;54.35;31.73;;;;;;;15.71;64.34;100236.08;2125420;83;21320;-81
2021/03/30 10:21:19;;;;;;;43.78;29.77;;;;;;;15.79;64.44;100235.74;2126267;83;21118;-79
2021/03/30 10:24:20;;;;;;;57.35;34.95;;;;;;;15.91;64.13;100234.58;2126353;83;21146;-80
2021/03/30 10:27:21;;;;;;;47.40;31.55;;;;;;;15.98;63.62;100233.34;2126422;83;21171;-81
2021/03/30 10:30:22;;;;;;;38.80;27.87;;;;;;;15.92;63.66;100238.09;2126338;83;21138;-82
2021/03/30 10:33:23;;;;;;;48.78;30.40;;;;;;;15.83;64.09;100233.60;2125698;83;21732;-78
2021/03/30 10:36:25;;;;;;;59.50;35.35;;;;;;;15.86;63.29;100238.91;2124738;83;21272;-79
2021/03/30 10:39:26;;;;;;;47.78;30.27;;;;;;;15.96;64.76;100233.75;2125304;83;21305;-79
2021/03/30 10:42:31;;;;;;;48.75;32.05;;;;;;;16.16;64.18;100229.61;2123402;83;21161;-79
2021/03/30 10:45:32;;;;;;;50.05;31.82;;;;;;;16.16;64.35;100224.34;2125666;83;21459;-81
2021/03/30 10:48:33;;;;;;;46.37;30.08;;;;;;;16.26;63.99;100223.57;2124562;84;21296;-79
2021/03/30 10:51:34;;;;;;;34.27;26.60;;;;;;;16.56;64.00;100218.64;2125162;83;21256;-80
2021/03/30 10:54:35;;;;;;;50.98;34.80;;;;;;;16.96;63.29;100213.73;2126486;83;21280;-79
2021/03/30 10:57:38;;;;;;;42.93;29.10;;;;;;;17.10;63.58;100216.48;2126358;83;21293;-80
2021/03/30 11:00:39;;;;;;;43.78;28.95;;;;;;;17.23;61.36;100210.85;2126141;83;21139;-79
2021/03/30 11:03:40;;;;;;;38.92;26.82;;;;;;;17.22;61.50;100213.05;2127117;83;21281;-78
2021/03/30 11:06:45;;;;;;;39.30;28.32;;;;;;;17.39;61.59;100203.08;2127062;83;21147;-80
2021/03/30 11:09:44;;;;;;;38.67;25.88;;;;;;;17.73;61.41;100202.84;2127220;83;21666;-80
2021/03/30 11:12:45;;;;;;;39.20;26.52;;;;;;;17.97;60.48;100202.05;2131131;83;21440;-79
2021/03/30 11:15:46;;;;;;;41.05;29.48;;;;;;;17.90;59.35;100192.34;2131583;83;21344;-83
2021/03/30 11:18:48;;;;;;;41.92;28.17;;;;;;;17.73;59.37;100200.64;2129665;83;21171;-78
2021/03/30 11:21:49;;;;;;;40.63;28.27;;;;;;;17.75;59.48;100193.17;2129417;83;21501;-78
2021/03/30 11:24:54;;;;;;;43.83;26.27;;;;;;;17.75;57.54;100190.97;2128418;83;21285;-78
2021/03/30 11:27:55;;;;;;;36.88;25.40;;;;;;;17.78;58.75;100194.94;2130291;84;21694;-81
2021/03/30 11:30:56;;;;;;;35.30;25.20;;;;;;;17.92;57.74;100197.63;2130395;83;21198;-80
2021/03/30 11:34:06;;;;;;;33.50;23.15;;;;;;;17.97;56.94;100186.20;2129757;83;21123;-80
2021/03/30 11:37:10;;;;;;;36.53;24.60;;;;;;;17.95;55.86;100187.08;2128904;84;21300;-80
2021/03/30 11:40:06;;;;;;;;;;;;;;;17.90;56.56;100188.38;2130298;84;21591;-79
2021/03/30 11:43:07;;;;;;;31.10;22.95;;;;;;;18.01;55.92;100177.41;2129697;83;20775;-79
2021/03/30 11:46:10;;;;;;;31.40;24.50;;;;;;;18.17;56.53;100182.30;2130574;83;21305;-79
2021/03/30 11:49:11;;;;;;;32.93;24.35;;;;;;;18.32;56.85;100178.84;2129647;83;21349;-80
2021/03/30 11:52:14;;;;;;;48.25;26.17;;;;;;;18.37;56.75;100176.64;2130154;83;21256;-79
2021/03/30 11:55:15;;;;;;;37.42;24.87;;;;;;;18.49;56.96;100173.13;2129367;83;21257;-79
2021/03/30 11:58:16;;;;;;;30.75;21.42;;;;;;;18.31;55.13;100175.31;2128535;83;21852;-79
2021/03/30 12:01:19;;;;;;;27.75;19.60;;;;;;;17.98;55.25;100168.59;2129649;83;21508;-79
2021/03/30 12:04:21;;;;;;;23.77;19.77;;;;;;;17.85;56.45;100172.95;2128333;83;21269;-80
2021/03/30 12:07:22;;;;;;;25.02;17.05;;;;;;;17.87;56.51;100166.36;2127879;83;21324;-80
2021/03/30 12:10:23;;;;;;;28.65;20.60;;;;;;;17.75;55.14;100169.40;2126419;83;21364;-79
2021/03/30 12:13:24;;;;;;;27.70;18.15;;;;;;;17.75;56.74;100161.91;2121674;83;21787;-79
2021/03/30 12:16:25;;;;;;;23.30;16.97;;;;;;;17.85;55.46;100162.39;2121662;84;21277;-78
2021/03/30 12:19:26;;;;;;;26.17;16.93;;;;;;;17.71;55.72;100159.70;2122117;83;21307;-79
2021/03/30 12:22:27;;;;;;;27.05;17.60;;;;;;;17.61;56.56;100159.19;2122840;83;21159;-80
2021/03/30 12:25:29;;;;;;;28.70;18.00;;;;;;;17.62;56.20;100159.63;2123601;83;21512;-80
2021/03/30 12:28:30;;;;;;;23.38;16.55;;;;;;;17.63;56.79;100161.39;2123240;84;21487;-80
2021/03/30 12:31:31;;;;;;;28.32;17.23;;;;;;;17.78;56.87;100149.60;2124184;84;21452;-80
2021/03/30 12:34:34;;;;;;;23.55;16.57;;;;;;;17.88;55.73;100149.20;2122828;83;21250;-78
2021/03/30 12:37:35;;;;;;;22.60;15.95;;;;;;;18.11;54.99;100142.64;2122194;83;21538;-79
2021/03/30 12:40:37;;;;;;;28.62;18.00;;;;;;;18.17;54.90;100133.41;2122670;83;21313;-79
2021/03/30 12:43:38;;;;;;;26.57;16.62;;;;;;;18.01;54.81;100139.54;2122725;83;21139;-81
2021/03/30 12:46:39;;;;;;;26.82;20.32;;;;;;;17.88;55.29;100132.02;2123810;83;21300;-79
2021/03/30 12:49:40;;;;;;;24.57;16.97;;;;;;;17.81;54.97;100131.13;2124962;83;21119;-79
2021/03/30 12:52:41;;;;;;;25.57;15.43;;;;;;;17.69;54.33;100131.09;2124578;83;21151;-81
2021/03/30 12:55:42;;;;;;;23.35;14.80;;;;;;;17.61;55.00;100134.10;2125277;83;21261;-80
2021/03/30 12:58:43;;;;;;;24.20;14.87;;;;;;;17.59;54.13;100133.22;2124591;83;21162;-79
2021/03/30 13:01:44;;;;;;;21.82;14.93;;;;;;;17.68;55.19;100127.12;2122861;83;21763;-79
2021/03/30 13:04:45;;;;;;;25.10;15.72;;;;;;;17.79;53.97;100121.44;2122365;84;21288;-80
2021/03/30 13:07:46;;;;;;;27.55;17.40;;;;;;;17.83;54.88;100128.05;2121964;83;21301;-79
2021/03/30 13:10:48;;;;;;;26.90;16.17;;;;;;;17.81;53.57;100128.48;2122174;83;21190;-80
2021/03/30 13:13:49;;;;;;;26.60;17.73;;;;;;;17.72;53.75;100112.61;2125939;83;21280;-78
2021/03/30 13:16:50;;;;;;;28.07;16.10;;;;;;;17.79;54.32;100109.55;2126507;83;21499;-78
2021/03/30 13:19:51;;;;;;;21.02;15.18;;;;;;;17.89;54.44;100110.45;2126628;84;21285;-79
2021/03/30 13:22:53;;;;;;;28.35;19.17;;;;;;;17.97;53.87;100107.39;2127073;83;21154;-79
2021/03/30 13:25:54;;;;;;;18.15;13.48;;;;;;;18.11;54.54;100105.65;2127154;83;21123;-78
2021/03/30 13:28:55;;;;;;;22.93;14.85;;;;;;;18.25;53.41;100106.58;2127160;83;21340;-80
2021/03/30 13:31:56;;;;;;;23.73;14.75;;;;;;;18.22;53.43;100107.90;2127021;83;21544;-77
2021/03/30 13:34:58;;;;;;;23.18;14.55;;;;;;;18.18;53.20;100109.18;2127225;83;21130;-79
2021/03/30 13:37:59;;;;;;;22.35;15.55;;;;;;;18.02;53.70;100104.31;2126073;83;21143;-78
2021/03/30 13:41:01;;;;;;;22.48;15.18;;;;;;;17.98;53.48;100106.07;2127096;83;21146;-79
2021/03/30 13:44:02;;;;;;;20.37;13.03;;;;;;;18.09;54.41;100114.02;2127430;84;21265;-79
2021/03/30 13:47:03;;;;;;;17.05;13.10;;;;;;;18.33;53.91;100102.63;2127388;83;21150;-80
2021/03/30 13:50:04;;;;;;;20.85;12.60;;;;;;;18.36;52.96;100108.79;2128364;83;21155;-80